• Join FlightAware (Why Join?)
  • Login
  • US Flag 
04:23AM EDT


 

Airport Tracker/Info


-or-


 

Live Flight TrackerFlight Track Log ✈ SWA2451 ✈ 10-May-2013 ✈ KTPA - KDAL

Flight Track Log - Related Links

Times and Time Zones

All times are in EDT time to prevent confusion due to time zone crossing. See the SWA2451 flight status page for this flight to view local times or setup timezone preferences in your user account.

Time Position Orientation Groundspeed Altitude Reporting Facility
EDT Latitude Longitude Course Direction KTS MPH feet Rate Location/Type
10:00AM 27.9333 -82.5500 204° Southwest 180 207 1,800  Level Tampa TRACON
10:01AM 27.8667 -82.5833 204° Southwest 201 231 4,600 2,760 Climbing Tampa TRACON
10:02AM 27.8500 -82.6333 249° West 231 266 7,700 2,640 Climbing Tampa TRACON
10:05AM 28.0267 -82.7092 339° North 287 330 13,800 2,640 Climbing Jacksonville Center
10:06AM 28.1206 -82.7278 350° North 318 366 16,900 2,460 Climbing Jacksonville Center
10:07AM 28.2186 -82.7467 350° North 337 388 18,800 2,100 Climbing Jacksonville Center
10:08AM 28.3231 -82.7675 350° North 357 411 21,100 2,340 Climbing Jacksonville Center
10:09AM 28.4275 -82.7886 350° North 376 433 23,500 1,860 Climbing Jacksonville Center
10:10AM 28.5358 -82.8075 351° North 381 438 24,900 1,620 Climbing Jacksonville Center
10:11AM 28.6486 -82.8286 351° North 391 450 26,800 1,560 Climbing Jacksonville Center
10:12AM 28.7719 -82.8569 349° North 397 457 28,100 1,440 Climbing Jacksonville Center
10:13AM 28.8908 -82.8856 348° North 409 471 29,700 1,620 Climbing Jacksonville Center
10:14AM 29.0078 -82.9164 347° North 426 490 31,400 1,500 Climbing Jacksonville Center
10:15AM 29.1036 -82.9947 324° Northwest 418 481 32,700 1,560 Climbing Jacksonville Center
10:16AM 29.1975 -83.0758 323° Northwest 418 481 34,600 1,620 Climbing Jacksonville Center
10:17AM 29.2850 -83.1497 324° Northwest 413 475 36,000 180 Climbing Jacksonville Center
10:18AM 29.3789 -83.2239 325° Northwest 408 470 35,000 -1,020 Descending Jacksonville Center
10:19AM 29.4683 -83.2981 324° Northwest 403 464 34,000 -540 Descending Jacksonville Center
10:20AM 29.5619 -83.3750 324° Northwest 408 470 34,000 -300 Level Jacksonville Center
10:21AM 29.6578 -83.4519 325° Northwest 408 470 33,400 -1,020 Descending Jacksonville Center
10:22AM 29.7556 -83.5289 326° Northwest 413 475 32,000 -720 Descending Jacksonville Center
10:23AM 29.8492 -83.6039 325° Northwest 418 481 32,000  Level Jacksonville Center
10:24AM 29.9467 -83.6861 324° Northwest 423 487 32,000  Level Jacksonville Center
10:25AM 30.0422 -83.7611 326° Northwest 423 487 32,000  Level Jacksonville Center
10:26AM 30.1356 -83.8414 323° Northwest 423 487 32,000  Level Jacksonville Center
10:27AM 30.2331 -83.9192 325° Northwest 423 487 32,000  Level Jacksonville Center
10:28AM 30.3264 -83.9972 324° Northwest 423 487 32,000  Level Jacksonville Center
10:29AM 30.4239 -84.0778 325° Northwest 423 487 32,000  Level Jacksonville Center
10:30AM 30.5169 -84.1561 324° Northwest 423 487 32,000  Level Jacksonville Center
10:31AM 30.6081 -84.2344 324° Northwest 415 478 32,000  Level Jacksonville Center
10:32AM 30.7014 -84.3108 325° Northwest 410 472 32,000  Level Jacksonville Center
10:33AM 30.7944 -84.3894 324° Northwest 410 472 32,000  Level Jacksonville Center
10:34AM 30.8872 -84.4683 324° Northwest 410 472 32,000  Level Jacksonville Center
10:35AM 30.9803 -84.5475 324° Northwest 405 466 32,000  Level Jacksonville Center
10:37AM 31.1458 -84.6867 324° Northwest 411 473 32,000  Level Atlanta Center
10:38AM 31.2372 -84.7675 323° Northwest 406 467 32,000  Level Atlanta Center
10:39AM 31.3308 -84.8436 325° Northwest 406 467 32,000  Level Atlanta Center
10:40AM 31.4242 -84.9222 324° Northwest 406 467 32,000  Level Atlanta Center
10:41AM 31.5111 -84.9986 323° Northwest 406 467 32,000  Level Atlanta Center
10:42AM 31.6025 -85.0800 323° Northwest 406 467 32,000  Level Atlanta Center
10:43AM 31.7061 -85.1617 326° Northwest 406 467 32,000  Level Atlanta Center
10:44AM 31.7992 -85.2436 323° Northwest 406 467 32,000  Level Atlanta Center
10:45AM 31.8944 -85.3231 325° Northwest 406 467 32,000  Level Atlanta Center
10:46AM 31.9894 -85.4053 324° Northwest 413 475 32,000  Level Atlanta Center
10:47AM 32.0825 -85.4850 324° Northwest 413 475 32,000  Level Atlanta Center
10:48AM 32.1775 -85.5700 323° Northwest 423 487 32,000  Level Atlanta Center
10:49AM 32.2747 -85.6528 324° Northwest 428 493 32,000  Level Atlanta Center
10:50AM 32.3694 -85.7358 323° Northwest 428 493 32,000  Level Atlanta Center
10:51AM 32.4539 -85.8161 321° Northwest 433 498 32,000  Level Atlanta Center
10:52AM 32.5653 -85.9069 326° Northwest 433 498 32,000  Level Atlanta Center
10:53AM 32.6619 -85.9931 323° Northwest 433 498 32,000  Level Atlanta Center
10:54AM 32.7589 -86.0767 324° Northwest 433 498 32,000  Level Atlanta Center
10:55AM 32.8533 -86.1606 323° Northwest 433 498 32,000  Level Atlanta Center
10:56AM 32.9500 -86.2519 322° Northwest 434 499 32,000  Level Atlanta Center
10:57AM 33.0444 -86.3336 324° Northwest 434 499 32,000  Level Atlanta Center
10:58AM 33.1239 -86.4300 315° West 434 499 32,000  Level Atlanta Center
10:59AM 33.1047 -86.5608 260° West 355 409 32,000  Level Atlanta Center
11:00AM 33.0667 -86.6786 249° West 383 441 32,000  Level Atlanta Center
11:01AM 33.0306 -86.8114 252° West 399 459 32,000  Level Atlanta Center
11:02AM 32.9942 -86.9342 251° West 399 459 32,000  Level Atlanta Center
11:03AM 32.9578 -87.0592 251° West 405 466 32,000  Level Atlanta Center
11:04AM 32.9211 -87.1864 251° West 405 466 32,000  Level Atlanta Center
11:05AM 32.8847 -87.3114 251° West 405 466 32,000  Level Atlanta Center
11:06AM 32.8519 -87.4386 253° West 405 466 32,000  Level Atlanta Center
11:08AM 32.7689 -87.7064 250° West 395 455 32,000  Level Memphis Center
11:09AM 32.7339 -87.8333 252° West 401 461 32,000  Level Memphis Center
11:10AM 32.6947 -87.9678 251° West 401 461 32,000  Level Memphis Center
11:11AM 32.6594 -88.0919 251° West 401 461 32,000  Level Memphis Center
11:12AM 32.6219 -88.2114 250° West 401 461 32,000  Level Memphis Center
11:13AM 32.5864 -88.3331 251° West 401 461 32,000  Level Memphis Center
11:14AM 32.5531 -88.4547 252° West 396 456 32,000  Level Memphis Center
11:15AM 32.5150 -88.5761 250° West 391 450 32,000  Level Memphis Center
11:16AM 32.4772 -88.6975 250° West 391 450 32,000  Level Memphis Center
11:17AM 32.4411 -88.8189 251° West 391 450 32,000  Level Memphis Center
11:18AM 32.4050 -88.9350 250° West 391 450 32,000  Level Memphis Center
11:19AM 32.3686 -89.0561 250° West 391 450 32,000  Level Memphis Center
11:20AM 32.3322 -89.1772 250° West 391 450 32,000  Level Memphis Center
11:21AM 32.2936 -89.2956 249° West 391 450 32,000  Level Memphis Center
11:22AM 32.2569 -89.4164 250° West 391 450 32,000  Level Memphis Center
11:23AM 32.2203 -89.5372 250° West 391 450 32,000  Level Memphis Center
11:24AM 32.1814 -89.6578 249° West 391 450 32,000  Level Memphis Center
11:25AM 32.1444 -89.7758 250° West 391 450 32,000  Level Memphis Center
11:26AM 32.1075 -89.8986 250° West 391 450 32,000  Level Memphis Center
11:27AM 32.0703 -90.0167 250° West 391 450 32,000  Level Memphis Center
11:28AM 32.0517 -90.1417 260° West 391 450 32,000  Level Memphis Center
11:29AM 32.0644 -90.2764 276° West 397 457 32,000  Level Memphis Center
11:30AM 32.0811 -90.4089 278° West 402 463 32,000  Level Memphis Center
11:31AM 32.0978 -90.5389 279° West 407 468 32,000  Level Memphis Center
11:32AM 32.1100 -90.6714 276° West 407 468 32,000 -120 Level Memphis Center
11:32AM 32.1128 -90.7006 276° West 406 467 31,900  Descending Houston Center
11:33AM 32.1306 -90.8281 279° West 402 463 32,000  Climbing Houston Center
11:34AM 32.1475 -90.9847 277° West 403 464 32,000  Level Houston Center
11:35AM 32.1619 -91.1161 277° West 405 466 32,000  Level Houston Center
11:36AM 32.1761 -91.2472 277° West 404 465 32,000  Level Houston Center
11:37AM 32.1897 -91.3789 277° West 406 467 32,000  Level Houston Center
11:38AM 32.2014 -91.5097 276° West 404 465 32,000  Level Houston Center
11:39AM 32.2158 -91.6419 277° West 406 467 32,000  Level Houston Center
11:40AM 32.2292 -91.7747 277° West 407 468 32,000  Level Houston Center
11:41AM 32.2453 -91.9367 277° West 412 474 32,000  Level Houston Center
11:42AM 32.2589 -92.0728 277° West 410 472 32,000  Level Houston Center
11:43AM 32.2722 -92.2106 277° West 417 480 32,000  Level Houston Center
11:45AM 32.2864 -92.3453 277° West 417 480 32,000  Level Houston Center
11:46AM 32.2983 -92.4781 276° West 412 474 32,000  Level Houston Center
11:47AM 32.3108 -92.6064 277° West 402 463 32,000 -1,140 Level Houston Center
11:48AM 32.3222 -92.7261 276° West 390 449 29,700 -1,980 Descending Houston Center
11:49AM 32.3361 -92.8825 276° West 399 459 28,000 -900 Descending Houston Center
11:50AM 32.3425 -92.9950 274° West 405 466 28,000 -1,800 Level Fort Worth Center
11:51AM 32.3342 -93.1158 265° West 400 460 24,600 -2,040 Descending Fort Worth Center
11:52AM 32.3325 -93.2536 269° West 388 447 24,000 -300 Descending Fort Worth Center
11:53AM 32.3367 -93.3761 272° West 383 441 24,000  Level Fort Worth Center
11:54AM 32.3383 -93.4967 271° West 383 441 24,000  Level Fort Worth Center
11:55AM 32.3397 -93.6122 271° West 372 428 24,000  Level Fort Worth Center
11:56AM 32.3414 -93.7350 271° West 367 422 24,000  Level Fort Worth Center
11:57AM 32.3447 -93.8578 272° West 367 422 24,000  Level Fort Worth Center
11:58AM 32.3461 -93.9806 271° West 372 428 24,000  Level Fort Worth Center
11:59AM 32.3475 -94.1061 271° West 372 428 24,000  Level Fort Worth Center
12:00PM 32.3508 -94.2336 272° West 382 440 24,000  Level Fort Worth Center
12:01PM 32.3517 -94.3567 270° West 387 445 24,000  Level Fort Worth Center
12:02PM 32.3547 -94.4844 272° West 382 440 24,000  Level Fort Worth Center
12:03PM 32.3556 -94.6097 270° West 387 445 24,000  Level Fort Worth Center
12:04PM 32.3583 -94.7400 271° West 387 445 24,000  Level Fort Worth Center
12:05PM 32.3567 -94.8581 269° West 382 440 24,000  Level Fort Worth Center
12:06PM 32.3589 -94.9761 271° West 372 428 24,000  Level Fort Worth Center
12:07PM 32.3653 -95.0867 274° West 372 428 24,000  Level Fort Worth Center
12:08PM 32.3653 -95.2022 270° West 365 420 24,000  Level Fort Worth Center
12:09PM 32.3839 -95.3175 281° West 360 414 24,000  Level Fort Worth Center
12:10PM 32.4044 -95.4350 282° West 360 414 24,000  Level Fort Worth Center
12:11PM 32.4250 -95.5478 282° West 360 414 24,000 -900 Level Fort Worth Center
12:12PM 32.4456 -95.6606 282° West 360 414 22,300 -2,100 Descending Fort Worth Center
12:13PM 32.4658 -95.7711 282° West 353 406 19,900 -2,340 Descending Fort Worth Center
12:14PM 32.4817 -95.8742 280° West 342 394 17,700 -2,340 Descending Fort Worth Center
12:15PM 32.4994 -95.9772 282° West 327 376 15,300 -2,400 Descending Fort Worth Center
12:16PM 32.5194 -96.0878 282° West 322 371 12,900 -2,220 Descending Fort Worth Center
12:17PM 32.5350 -96.1789 281° West 317 365 10,900 -1,440 Descending Fort Worth Center
12:18PM 32.5550 -96.2844 283° West 312 359 10,100 -600 Descending Fort Worth Center
12:19PM 32.5828 -96.3803 289° West 312 359 9,800 -600 Descending Fort Worth Center
12:20PM 32.6044 -96.4689 286° West 293 337 8,900 -900 Descending Fort Worth Center
12:21PM 32.6217 -96.5428 285° West 259 298 8,000 -1,200 Descending Fort Worth Center
12:22PM 32.6431 -96.6092 291° West 229 264 6,500 -1,560 Descending Fort Worth Center
12:23PM 32.6872 -96.6581 317° Northwest 216 249 4,900 -1,560 Descending Fort Worth Center
12:24PM 32.7311 -96.7094 315° West 221 254 3,400 -1,200 Descending Fort Worth Center
12:25PM 32.7667 -96.7500 316° Northwest 185 213 2,500 -900 Descending Dallas / Fort Worth TRACON
12:25PM 32.8000 -96.7833 320° Northwest 163 188 1,700 -840 Descending Dallas / Fort Worth TRACON
12:26PM 32.8333 -96.8167 320° Northwest 135 155 1,000 7,260 Descending Dallas / Fort Worth TRACON
12:29PM 32.8825 -96.8864 310° West 143 165 24,000 7,500 Climbing Fort Worth Center
12:30PM 32.9075 -96.9161 315° West 143 165 24,000  Level Fort Worth Center
12:31PM 32.9347 -96.9481 315° West 143 165 24,000  Level Fort Worth Center
12:33PM 32.8471 -96.8518 148° Southeast  Level Estimated
12:40PM 32.8471 -96.8518 148° Southeast  Level Estimated
12:41PM 32.8471 -96.8518 148° Southeast  Level Estimated
12:42PM 32.8471 -96.8518 148° Southeast  Level Estimated